createdAt,value
2018-04-17T00:01:40.926Z,15.50
2018-04-17T00:04:09.789Z,13.30
2018-04-17T00:06:38.641Z,16.43
2018-04-17T00:09:08.244Z,11.17
2018-04-17T00:11:37.090Z,13.13
2018-04-17T00:14:05.938Z,17.03
2018-04-17T00:16:35.550Z,14.67
2018-04-17T00:19:04.403Z,15.07
2018-04-17T00:21:33.261Z,13.90
2018-04-17T00:24:02.101Z,18.10
2018-04-17T00:26:31.085Z,18.70
2018-04-17T00:28:59.925Z,15.23
2018-04-17T00:31:28.757Z,13.30
2018-04-17T00:33:59.114Z,14.47
2018-04-17T00:36:27.969Z,15.20
2018-04-17T00:38:56.808Z,18.00
2018-04-17T00:41:25.666Z,14.10
2018-04-17T00:43:55.299Z,14.60
2018-04-17T00:46:24.148Z,13.50
2018-04-17T00:48:52.993Z,17.13
2018-04-17T00:51:21.837Z,17.67
2018-04-17T00:53:53.470Z,13.07
2018-04-17T00:56:22.304Z,13.67
2018-04-17T00:58:51.149Z,17.30
2018-04-17T01:01:19.976Z,17.07
2018-04-17T01:03:48.825Z,16.73
2018-04-17T01:06:17.664Z,21.80
2018-04-17T01:08:46.517Z,20.80
2018-04-17T01:11:16.137Z,13.77
2018-04-17T01:13:44.999Z,14.70
2018-04-17T01:16:13.849Z,15.30
2018-04-17T01:18:42.723Z,14.23
2018-04-17T01:21:11.566Z,17.77
2018-04-17T01:23:40.442Z,19.53
2018-04-17T01:26:09.299Z,14.37
2018-04-17T01:28:38.148Z,13.83
2018-04-17T01:31:07.757Z,22.93
2018-04-17T01:33:37.382Z,15.50
2018-04-17T01:36:06.348Z,19.90
2018-04-17T01:38:35.201Z,11.93
2018-04-17T01:41:04.049Z,15.10
2018-04-17T01:43:33.709Z,16.37
2018-04-17T01:46:02.542Z,21.90
2018-04-17T01:48:32.162Z,17.87
2018-04-17T01:51:01.023Z,17.10
2018-04-17T01:53:29.860Z,14.60
2018-04-17T01:55:58.725Z,16.93
2018-04-17T01:58:27.565Z,15.93
2018-04-17T02:00:56.424Z,12.40
2018-04-17T02:03:25.261Z,16.63
2018-04-17T02:05:54.116Z,16.97
2018-04-17T02:08:23.726Z,20.13
2018-04-17T02:10:53.341Z,12.67
2018-04-17T02:13:22.960Z,17.53
2018-04-17T02:15:51.803Z,16.87
2018-04-17T02:18:20.657Z,18.40
2018-04-17T02:20:49.504Z,21.23
2018-04-17T02:23:19.104Z,14.13
2018-04-17T02:25:47.963Z,17.87
2018-04-17T02:28:16.827Z,19.23
2018-04-17T02:30:45.989Z,16.63
2018-04-17T02:33:15.692Z,18.73
2018-04-17T02:35:45.320Z,14.90
2018-04-17T02:38:14.936Z,14.13
2018-04-17T02:40:43.771Z,18.17
2018-04-17T02:43:12.613Z,16.87
2018-04-17T02:45:41.477Z,18.40
2018-04-17T02:48:11.205Z,19.07
2018-04-17T02:50:40.046Z,20.17
2018-04-17T02:53:08.914Z,19.23
2018-04-17T02:55:37.758Z,19.47
2018-04-17T02:58:06.598Z,18.30
2018-04-17T03:00:35.454Z,20.33
2018-04-17T03:03:05.057Z,14.37
2018-04-17T03:05:34.666Z,19.20
2018-04-17T03:08:04.279Z,15.70
2018-04-17T03:10:33.913Z,20.10
2018-04-17T03:13:02.765Z,18.30
2018-04-17T03:15:32.374Z,17.03
2018-04-17T03:18:01.988Z,22.03
2018-04-17T03:20:31.607Z,17.03
2018-04-17T03:23:01.309Z,21.77
2018-04-17T03:25:30.922Z,15.00
2018-04-17T03:28:00.520Z,19.33
2018-04-17T03:30:30.150Z,18.53
2018-04-17T03:32:58.992Z,17.17
2018-04-17T03:35:28.643Z,13.93
2018-04-17T03:37:57.497Z,18.30
2018-04-17T03:40:26.348Z,18.63
2018-04-17T03:42:55.185Z,20.70
2018-04-17T03:45:24.832Z,21.33
2018-04-17T03:47:53.695Z,19.97
2018-04-17T03:50:23.309Z,20.60
2018-04-17T03:52:52.166Z,19.70
2018-04-17T03:55:21.016Z,19.20
2018-04-17T03:57:50.662Z,19.57
2018-04-17T04:00:19.506Z,24.43
2018-04-17T04:02:49.136Z,23.50
2018-04-17T04:05:17.982Z,30.43
2018-04-17T04:07:47.049Z,28.73
2018-04-17T04:10:15.897Z,24.00
2018-04-17T04:12:45.097Z,39.20
2018-04-17T04:15:14.728Z,49.67
2018-04-17T04:17:55.520Z,44.43
2018-04-17T04:20:36.383Z,45.23
2018-04-17T04:23:17.032Z,47.70
2018-04-17T04:28:49.998Z,58.40
2018-04-17T04:31:18.856Z,47.67
2018-04-17T04:33:47.705Z,47.83
2018-04-17T04:36:17.338Z,56.23
2018-04-17T04:38:46.180Z,49.73
2018-04-17T04:41:15.790Z,51.23
2018-04-17T04:43:46.446Z,28.43
2018-04-17T04:46:15.308Z,29.00
2018-04-17T04:48:44.928Z,28.50
2018-04-17T04:51:14.540Z,32.77
2018-04-17T04:53:43.702Z,26.93
2018-04-17T04:56:12.557Z,26.83
2018-04-17T04:58:42.173Z,33.97
2018-04-17T05:01:11.030Z,36.13
2018-04-17T05:03:40.650Z,41.30
2018-04-17T05:06:10.268Z,39.80
2018-04-17T05:08:39.118Z,25.13
2018-04-17T05:11:07.965Z,24.97
2018-04-17T05:13:36.829Z,28.33
2018-04-17T05:16:06.446Z,24.13
2018-04-17T05:18:35.300Z,20.57
2018-04-17T05:21:04.140Z,39.63
2018-04-17T05:23:32.984Z,22.40
2018-04-17T05:26:01.886Z,20.60
2018-04-17T05:28:30.731Z,27.57
2018-04-17T05:30:59.569Z,21.23
2018-04-17T05:33:29.209Z,23.37
2018-04-17T05:35:58.050Z,22.70
2018-04-17T05:38:26.888Z,21.87
2018-04-17T05:40:55.751Z,20.93
2018-04-17T05:43:25.360Z,22.90
2018-04-17T05:45:54.969Z,19.67
2018-04-17T05:48:25.008Z,22.97
2018-04-17T05:50:53.844Z,33.60
2018-04-17T05:53:22.676Z,25.77
2018-04-17T05:55:51.574Z,33.03
2018-04-17T05:58:21.156Z,31.30
2018-04-17T06:00:50.784Z,21.30
2018-04-17T06:03:19.621Z,23.83
2018-04-17T06:05:48.501Z,30.37
2018-04-17T06:08:17.350Z,31.23
2018-04-17T06:10:46.210Z,26.00
2018-04-17T06:13:15.816Z,25.50
2018-04-17T06:15:45.434Z,25.30
2018-04-17T06:18:15.064Z,22.27
2018-04-17T06:20:44.682Z,30.53
2018-04-17T06:23:13.571Z,27.93
2018-04-17T06:25:42.367Z,25.50
2018-04-17T06:28:11.222Z,30.20
2018-04-17T06:30:40.825Z,28.87
2018-04-17T06:33:09.993Z,34.13
2018-04-17T06:35:38.853Z,22.53
2018-04-17T06:38:07.700Z,25.27
2018-04-17T06:40:36.561Z,34.43
2018-04-17T06:43:05.409Z,30.23
2018-04-17T06:45:34.277Z,32.07
2018-04-17T06:48:03.126Z,25.20
2018-04-17T06:50:31.982Z,25.37
2018-04-17T06:53:00.832Z,19.40
2018-04-17T06:55:29.689Z,27.17
2018-04-17T06:57:59.364Z,23.43
2018-04-17T07:00:28.171Z,25.53
2018-04-17T07:02:57.040Z,26.60
2018-04-17T07:05:25.877Z,28.63
2018-04-17T07:07:54.764Z,29.43
2018-04-17T07:10:24.375Z,19.23
2018-04-17T07:12:54.004Z,20.97
2018-04-17T07:15:22.859Z,22.07
2018-04-17T07:17:52.484Z,24.83
2018-04-17T07:20:21.360Z,27.67
2018-04-17T07:22:50.991Z,27.20
2018-04-17T07:25:19.849Z,29.77
2018-04-17T07:27:48.710Z,28.90
2018-04-17T07:30:17.551Z,33.93
2018-04-17T07:32:46.417Z,21.27
2018-04-17T07:35:16.033Z,19.03
2018-04-17T07:37:45.688Z,23.90
2018-04-17T07:40:14.542Z,29.23
2018-04-17T07:42:43.425Z,19.63
2018-04-17T07:45:13.063Z,30.37
2018-04-17T07:47:47.804Z,26.70
2018-04-17T07:50:16.674Z,34.90
2018-04-17T07:52:45.538Z,18.90
2018-04-17T07:55:15.136Z,20.53
2018-04-17T07:57:43.981Z,23.00
2018-04-17T08:00:12.857Z,19.33
2018-04-17T08:02:42.466Z,30.80
2018-04-17T08:05:11.348Z,23.97
2018-04-17T08:07:40.968Z,19.33
2018-04-17T08:10:09.813Z,23.07
2018-04-17T08:12:38.653Z,23.20
2018-04-17T08:15:07.725Z,16.90
2018-04-17T08:17:36.624Z,21.77
2018-04-17T08:20:06.216Z,18.90
2018-04-17T08:22:35.833Z,17.90
2018-04-17T08:25:05.466Z,16.33
2018-04-17T08:27:34.347Z,18.17
2018-04-17T08:30:03.982Z,21.07
2018-04-17T08:32:32.836Z,19.50
2018-04-17T08:35:02.120Z,22.77
2018-04-17T08:37:31.728Z,20.13
2018-04-17T08:40:02.099Z,20.03
2018-04-17T08:42:31.133Z,27.00
2018-04-17T08:45:00.782Z,21.50
2018-04-17T08:47:29.646Z,19.03
2018-04-17T08:49:59.256Z,16.20
2018-04-17T08:52:28.945Z,16.10
2018-04-17T08:54:57.759Z,15.60
2018-04-17T08:57:26.609Z,16.83
2018-04-17T08:59:55.469Z,21.60
2018-04-17T09:02:24.328Z,18.23
2018-04-17T09:04:53.182Z,22.83
2018-04-17T09:07:22.813Z,19.70
2018-04-17T09:09:51.675Z,21.13
2018-04-17T09:12:20.558Z,19.30
2018-04-17T09:14:50.171Z,22.43
2018-04-17T09:17:19.796Z,17.33
2018-04-17T09:19:48.675Z,15.47
2018-04-17T09:22:17.538Z,19.10
2018-04-17T09:24:46.384Z,15.20
2018-04-17T09:27:15.928Z,20.00
2018-04-17T09:29:44.812Z,19.57
2018-04-17T09:32:13.684Z,16.53
2018-04-17T09:34:42.506Z,17.13
2018-04-17T09:37:11.366Z,13.20
2018-04-17T09:39:40.234Z,15.63
2018-04-17T09:42:09.081Z,15.30
2018-04-17T09:44:38.691Z,12.00
2018-04-17T09:47:08.318Z,13.30
2018-04-17T09:49:37.146Z,15.50
2018-04-17T09:52:06.228Z,9.90
2018-04-17T09:54:35.057Z,10.30
2018-04-17T09:57:04.245Z,10.23
2018-04-17T09:59:33.779Z,9.13
2018-04-17T10:02:03.407Z,9.50
2018-04-17T10:04:32.244Z,12.63
2018-04-17T10:07:01.069Z,11.30
2018-04-17T10:09:30.721Z,11.83
2018-04-17T10:11:59.543Z,11.17
2018-04-17T10:14:28.805Z,13.10
2018-04-17T10:16:57.646Z,11.07
2018-04-17T10:19:27.261Z,12.30
2018-04-17T10:21:56.119Z,12.13
2018-04-17T10:24:24.945Z,13.20
2018-04-17T10:26:53.797Z,14.70
2018-04-17T10:29:22.651Z,13.63
2018-04-17T10:31:51.516Z,10.50
2018-04-17T10:34:20.378Z,12.10
2018-04-17T10:36:49.997Z,13.03
2018-04-17T10:39:18.849Z,12.00
2018-04-17T10:41:47.722Z,10.10
2018-04-17T10:44:16.560Z,13.07
2018-04-17T10:46:45.411Z,14.60
2018-04-17T10:49:14.302Z,13.50
2018-04-17T10:51:43.601Z,11.70
2018-04-17T10:54:12.483Z,12.73
2018-04-17T10:56:41.312Z,12.27
2018-04-17T10:59:10.150Z,13.13
2018-04-17T11:01:39.027Z,9.80
2018-04-17T11:04:07.872Z,9.07
2018-04-17T11:06:37.866Z,8.27
2018-04-17T11:09:07.912Z,12.70
2018-04-17T11:11:37.514Z,12.60
2018-04-17T11:14:07.147Z,11.17
2018-04-17T11:16:36.025Z,10.17
2018-04-17T11:19:05.640Z,11.80
2018-04-17T11:21:34.796Z,8.83
2018-04-17T11:24:03.634Z,10.73
2018-04-17T11:26:32.482Z,8.80
2018-04-17T11:29:01.338Z,8.97
2018-04-17T11:31:30.150Z,9.83
2018-04-17T11:33:59.058Z,9.80
2018-04-17T11:36:27.897Z,9.83
2018-04-17T11:38:56.787Z,13.13
2018-04-17T11:41:25.633Z,10.03
2018-04-17T11:43:55.251Z,11.97
2018-04-17T11:46:24.101Z,8.50
2018-04-17T11:48:52.924Z,6.50
2018-04-17T11:51:21.834Z,11.70
2018-04-17T11:53:50.830Z,8.07
2018-04-17T11:56:19.696Z,10.70
2018-04-17T11:58:49.626Z,8.37
2018-04-17T12:01:18.469Z,7.50
2018-04-17T12:03:47.297Z,6.80
2018-04-17T12:06:16.922Z,6.60
2018-04-17T12:08:45.768Z,6.80
2018-04-17T12:11:14.605Z,9.87
2018-04-17T12:13:43.441Z,8.67
2018-04-17T12:16:12.293Z,9.33
2018-04-17T12:18:41.132Z,8.10
2018-04-17T12:21:10.735Z,8.73
2018-04-17T12:23:39.574Z,5.70
2018-04-17T12:26:08.407Z,6.77
2018-04-17T12:28:37.227Z,8.63
2018-04-17T12:31:06.075Z,9.07
2018-04-17T12:33:34.903Z,7.80
2018-04-17T12:36:04.534Z,10.10
2018-04-17T12:38:33.379Z,6.33
2018-04-17T12:41:03.005Z,6.63
2018-04-17T12:43:32.609Z,7.73
2018-04-17T12:46:03.945Z,7.00
2018-04-17T12:48:33.570Z,8.10
2018-04-17T12:51:03.178Z,12.30
2018-04-17T12:53:32.027Z,10.30
2018-04-17T12:56:00.896Z,8.90
2018-04-17T12:58:29.705Z,6.13
2018-04-17T13:00:58.589Z,6.17
2018-04-17T13:03:27.424Z,4.73
2018-04-17T13:05:56.278Z,6.60
2018-04-17T13:08:25.131Z,7.57
2018-04-17T13:10:54.768Z,8.07
2018-04-17T13:13:23.605Z,8.70
2018-04-17T13:15:52.461Z,9.27
2018-04-17T13:18:21.299Z,13.73
2018-04-17T13:20:51.503Z,6.67
2018-04-17T13:23:20.364Z,11.93
2018-04-17T13:25:49.201Z,7.33
2018-04-17T13:28:18.809Z,6.50
2018-04-17T13:30:48.413Z,5.90
2018-04-17T13:33:17.255Z,8.13
2018-04-17T13:35:46.186Z,8.73
2018-04-17T13:38:15.032Z,8.40
2018-04-17T13:40:43.882Z,10.13
2018-04-17T13:43:13.486Z,6.17
2018-04-17T13:45:43.112Z,6.60
2018-04-17T13:48:12.093Z,8.90
2018-04-17T13:50:40.920Z,7.00
2018-04-17T13:53:09.754Z,7.17
2018-04-17T13:55:38.582Z,8.90
2018-04-17T13:58:07.472Z,5.67
2018-04-17T14:00:36.396Z,5.43
2018-04-17T14:03:05.651Z,5.23
2018-04-17T14:05:34.498Z,5.40
2018-04-17T14:08:03.338Z,5.23
2018-04-17T14:10:33.673Z,9.10
2018-04-17T14:13:03.289Z,8.13
2018-04-17T14:15:32.907Z,7.13
2018-04-17T14:18:02.273Z,9.97
2018-04-17T14:20:31.106Z,7.40
2018-04-17T14:22:59.960Z,9.60
2018-04-17T14:25:29.600Z,5.97
2018-04-17T14:27:59.420Z,8.83
2018-04-17T14:30:28.243Z,12.27
2018-04-17T14:32:57.109Z,8.10
2018-04-17T14:35:25.945Z,10.10
2018-04-17T14:37:55.562Z,7.20
2018-04-17T14:40:25.172Z,8.20
2018-04-17T14:42:54.790Z,7.13
2018-04-17T14:45:24.388Z,6.23
2018-04-17T14:47:53.999Z,5.50
2018-04-17T14:50:23.608Z,11.63
2018-04-17T14:52:52.464Z,5.40
2018-04-17T14:55:21.302Z,7.03
2018-04-17T14:57:50.149Z,14.77
2018-04-17T15:00:19.402Z,5.97
2018-04-17T15:02:48.964Z,8.77
2018-04-17T15:05:18.588Z,6.80
2018-04-17T15:07:47.419Z,8.37
2018-04-17T15:10:16.253Z,6.80
2018-04-17T15:12:45.097Z,5.10
2018-04-17T15:15:13.938Z,5.83
2018-04-17T15:17:42.773Z,8.13
2018-04-17T15:20:11.626Z,9.93
2018-04-17T15:22:40.664Z,9.20
2018-04-17T15:25:09.506Z,4.70
2018-04-17T15:27:38.353Z,4.60
2018-04-17T15:30:07.212Z,8.27
2018-04-17T15:32:36.046Z,7.63
2018-04-17T15:35:05.659Z,6.97
2018-04-17T15:37:34.932Z,8.27
2018-04-17T15:40:03.767Z,5.60
2018-04-17T15:42:32.893Z,5.87
2018-04-17T15:45:01.781Z,7.07
2018-04-17T15:47:30.747Z,8.57
2018-04-17T15:49:59.806Z,4.07
2018-04-17T15:52:28.670Z,4.30
2018-04-17T15:54:57.511Z,7.97
2018-04-17T15:57:26.356Z,6.87
2018-04-17T15:59:55.319Z,5.80
2018-04-17T16:02:24.165Z,4.17
2018-04-17T16:04:54.092Z,5.17
2018-04-17T16:07:23.700Z,4.77
2018-04-17T16:09:53.299Z,4.20
2018-04-17T16:12:22.914Z,5.37
2018-04-17T16:14:52.519Z,11.17
2018-04-17T16:17:22.152Z,13.07
2018-04-17T16:19:51.007Z,10.67
2018-04-17T16:22:20.600Z,10.10
2018-04-17T16:24:49.474Z,10.70
2018-04-17T16:27:18.311Z,9.70
2018-04-17T16:29:47.579Z,13.47
2018-04-17T16:32:17.196Z,9.20
2018-04-17T16:34:46.057Z,8.70
2018-04-17T16:37:14.932Z,9.43
2018-04-17T16:39:43.796Z,13.40
2018-04-17T16:42:12.649Z,10.43
2018-04-17T16:44:41.676Z,10.17
2018-04-17T16:47:12.275Z,12.80
2018-04-17T16:49:41.117Z,11.07
2018-04-17T16:52:09.993Z,10.10
2018-04-17T16:54:38.836Z,11.43
2018-04-17T16:57:07.680Z,10.27
2018-04-17T16:59:36.536Z,10.00
2018-04-17T17:02:06.147Z,11.73
2018-04-17T17:04:35.776Z,9.53
2018-04-17T17:07:04.628Z,11.23
2018-04-17T17:09:33.499Z,18.10
2018-04-17T17:12:02.355Z,12.47
2018-04-17T17:14:31.216Z,12.07
2018-04-17T17:17:00.854Z,14.17
2018-04-17T17:19:29.727Z,15.60
2018-04-17T17:21:58.569Z,14.20
2018-04-17T17:24:27.420Z,11.87
2018-04-17T17:26:56.252Z,10.30
2018-04-17T17:29:25.093Z,13.03
2018-04-17T17:31:53.948Z,13.53
2018-04-17T17:34:23.567Z,12.33
2018-04-17T17:36:52.433Z,15.23
2018-04-17T17:39:23.181Z,14.00
2018-04-17T17:41:52.599Z,17.50
2018-04-17T17:44:22.687Z,16.90
2018-04-17T17:46:51.536Z,15.10
2018-04-17T17:49:20.429Z,12.70
2018-04-17T17:51:49.298Z,14.40
2018-04-17T17:54:18.144Z,10.03
2018-04-17T17:56:47.006Z,17.53
2018-04-17T17:59:16.093Z,15.30
2018-04-17T18:01:45.003Z,12.23
2018-04-17T18:04:14.593Z,11.17
2018-04-17T18:06:44.210Z,14.00
2018-04-17T18:09:13.185Z,14.17
2018-04-17T18:11:42.789Z,13.87
2018-04-17T18:14:12.426Z,15.20
2018-04-17T18:16:41.272Z,18.60
2018-04-17T18:19:10.126Z,18.70
2018-04-17T18:21:39.001Z,13.07
2018-04-17T18:24:08.629Z,15.60
2018-04-17T18:26:37.512Z,18.90
2018-04-17T18:29:07.099Z,20.87
2018-04-17T18:31:36.045Z,16.43
2018-04-17T18:34:04.890Z,20.60
2018-04-17T18:36:33.776Z,12.80
2018-04-17T18:39:02.640Z,20.63
2018-04-17T18:41:32.262Z,18.70
2018-04-17T18:44:01.884Z,22.10
2018-04-17T18:46:30.721Z,14.47
2018-04-17T18:48:59.589Z,15.17
2018-04-17T18:51:28.471Z,16.60
2018-04-17T18:53:57.319Z,18.63
2018-04-17T18:56:26.930Z,15.93
2018-04-17T18:58:56.588Z,18.00
2018-04-17T19:01:25.449Z,17.97
2018-04-17T19:03:55.105Z,16.13
2018-04-17T19:06:24.892Z,15.43
2018-04-17T19:08:54.523Z,17.27
2018-04-17T19:11:23.366Z,14.57
2018-04-17T19:13:53.002Z,15.80
2018-04-17T19:16:22.604Z,15.33
2018-04-17T19:18:52.216Z,14.20
2018-04-17T19:21:21.129Z,16.57
2018-04-17T19:23:49.996Z,20.07
2018-04-17T19:26:19.612Z,14.40
2018-04-17T19:28:48.461Z,24.40
2018-04-17T19:31:18.106Z,24.63
2018-04-17T19:33:46.975Z,21.73
2018-04-17T19:36:16.583Z,16.57
2018-04-17T19:38:46.238Z,18.00
2018-04-17T19:41:15.113Z,20.87
2018-04-17T19:43:43.974Z,16.97
2018-04-17T19:46:13.488Z,23.40
2018-04-17T19:48:43.103Z,19.90
2018-04-17T19:51:11.963Z,18.43
2018-04-17T19:53:41.610Z,21.57
2018-04-17T19:56:10.480Z,25.13
2018-04-17T19:58:40.112Z,26.57
2018-04-17T20:01:08.980Z,19.03
2018-04-17T20:03:38.812Z,18.27
2018-04-17T20:06:08.436Z,18.10
2018-04-17T20:08:38.081Z,17.80
2018-04-17T20:11:06.910Z,19.80
2018-04-17T20:13:36.966Z,21.60
2018-04-17T20:16:05.814Z,19.53
2018-04-17T20:18:35.441Z,24.87
2018-04-17T20:21:05.081Z,20.10
2018-04-17T20:23:33.959Z,29.37
2018-04-17T20:26:02.822Z,23.57
2018-04-17T20:28:32.096Z,18.43
2018-04-17T20:31:00.962Z,21.03
2018-04-17T20:33:29.857Z,27.57
2018-04-17T20:36:00.120Z,19.20
2018-04-17T20:38:29.749Z,25.43
2018-04-17T20:40:59.374Z,22.67
2018-04-17T20:43:28.222Z,29.07
2018-04-17T20:45:57.865Z,23.70
2018-04-17T20:48:26.721Z,25.07
2018-04-17T20:50:56.370Z,22.40
2018-04-17T20:53:25.217Z,20.93
2018-04-17T20:55:54.841Z,23.85
2018-04-17T20:58:23.682Z,27.70
2018-04-17T21:00:52.585Z,20.60
2018-04-17T21:03:21.401Z,22.73
2018-04-17T21:05:51.049Z,21.83
2018-04-17T21:08:19.900Z,21.33
2018-04-17T21:10:48.763Z,20.43
2018-04-17T21:13:17.611Z,21.20
2018-04-17T21:15:46.472Z,23.93
2018-04-17T21:18:16.077Z,20.50
2018-04-17T21:20:45.697Z,23.00
2018-04-17T21:23:15.313Z,21.30
2018-04-17T21:25:44.942Z,23.57
2018-04-17T21:28:13.930Z,21.80
2018-04-17T21:30:42.786Z,26.63
2018-04-17T21:33:11.621Z,25.10
2018-04-17T21:35:40.648Z,25.80
2018-04-17T21:38:09.623Z,23.33
2018-04-17T21:40:38.460Z,23.10
2018-04-17T21:43:07.379Z,28.63
2018-04-17T21:45:36.262Z,22.13
2018-04-17T21:48:05.146Z,20.47
2018-04-17T21:50:34.790Z,22.03
2018-04-17T21:53:03.658Z,21.77
2018-04-17T21:55:32.509Z,23.10
2018-04-17T21:58:02.134Z,23.47
2018-04-17T22:00:30.981Z,23.40
2018-04-17T22:02:59.833Z,26.27
2018-04-17T22:05:28.677Z,23.37
2018-04-17T22:07:57.566Z,27.63
2018-04-17T22:10:26.425Z,24.50
2018-04-17T22:12:56.076Z,26.00
2018-04-17T22:15:25.036Z,21.53
2018-04-17T22:17:54.025Z,24.70
2018-04-17T22:20:22.880Z,27.10
2018-04-17T22:22:51.829Z,34.53
2018-04-17T22:25:20.676Z,22.90
2018-04-17T22:27:50.289Z,25.43
2018-04-17T22:30:19.913Z,29.00
2018-04-17T22:32:48.782Z,22.47
2018-04-17T22:35:18.405Z,25.00
2018-04-17T22:37:47.277Z,22.83
2018-04-17T22:40:16.138Z,28.73
2018-04-17T22:42:44.981Z,25.43
2018-04-17T22:45:13.850Z,23.90
2018-04-17T22:47:43.458Z,27.90
2018-04-17T22:50:13.076Z,23.17
2018-04-17T22:52:42.689Z,24.30
2018-04-17T22:55:11.552Z,27.50
2018-04-17T22:57:40.388Z,21.63
2018-04-17T23:00:09.244Z,22.87
2018-04-17T23:02:37.832Z,23.80
2018-04-17T23:05:07.452Z,26.23
2018-04-17T23:07:36.316Z,23.00
2018-04-17T23:10:05.199Z,23.70
2018-04-17T23:12:34.044Z,24.00
2018-04-17T23:15:02.941Z,24.43
2018-04-17T23:17:32.146Z,24.80
2018-04-17T23:20:00.999Z,24.20
2018-04-17T23:22:30.607Z,23.93
2018-04-17T23:25:00.232Z,24.97
2018-04-17T23:27:29.070Z,25.07
2018-04-17T23:29:57.928Z,25.20
2018-04-17T23:32:26.789Z,26.03
2018-04-17T23:34:56.053Z,24.13
2018-04-17T23:37:24.901Z,24.53
2018-04-17T23:39:53.752Z,29.90
2018-04-17T23:42:23.376Z,30.83
2018-04-17T23:44:52.205Z,42.13
2018-04-17T23:47:21.187Z,32.80
2018-04-17T23:49:50.027Z,28.40
2018-04-17T23:52:19.650Z,32.03
2018-04-17T23:54:48.505Z,38.60
2018-04-17T23:57:17.364Z,40.63
2018-04-17T23:59:46.216Z,39.90
